Time;durP1;ratioP1;P1;durP2;ratioP2;P2;SDS_P1;SDS_P2;PMS_P1;PMS_P2;Temp;Humidity;BMP_temperature;BMP_pressure;BME280_temperature;BME280_humidity;BME280_pressure;Samples;Min_cycle;Max_cycle;Signal;HPM_P1;HPM_P2
2022/03/24 00:01:18;;;;;;;;;50.75;41.25;;;;;;;;5069582;28;45510;-81
2022/03/24 00:03:44;;;;;;;;;55.00;42.25;;;;;;;;5065609;28;45578;-80
2022/03/24 00:06:09;;;;;;;;;53.00;41.75;;;;;;;;5069551;28;45354;-80
2022/03/24 00:08:34;;;;;;;;;53.00;42.75;;;;;;;;5069415;28;45331;-81
2022/03/24 00:11:00;;;;;;;;;53.75;43.50;;;;;;;;5069208;28;45315;-82
2022/03/24 00:13:25;;;;;;;;;53.25;42.00;;;;;;;;5070831;28;45318;-81
2022/03/24 00:15:51;;;;;;;;;79.33;73.00;;;;;;;;5066175;28;45246;-81
2022/03/24 00:18:16;;;;;;;;;58.00;46.50;;;;;;;;5068605;28;45320;-81
2022/03/24 00:20:42;;;;;;;;;55.50;44.50;;;;;;;;5068260;28;45402;-80
2022/03/24 00:23:09;;;;;;;;;56.25;44.00;;;;;;;;5067641;28;45494;-81
2022/03/24 00:25:35;;;;;;;;;55.50;44.25;;;;;;;;5071788;28;45612;-81
2022/03/24 00:28:00;;;;;;;;;60.75;48.25;;;;;;;;5065354;28;46204;-81
2022/03/24 00:30:26;;;;;;;;;56.25;45.25;;;;;;;;5066756;28;45302;-81
2022/03/24 00:32:51;;;;;;;;;57.25;45.50;;;;;;;;5062009;28;45423;-81
2022/03/24 00:35:16;;;;;;;;;62.75;47.25;;;;;;;;5067543;28;45290;-80
2022/03/24 00:37:42;;;;;;;;;60.50;46.50;;;;;;;;5071660;28;47009;-83
2022/03/24 00:40:07;;;;;;;;;62.75;47.75;;;;;;;;5065559;28;45529;-83
2022/03/24 00:42:35;;;;;;;;;61.25;47.00;;;;;;;;5066816;28;45586;-83
2022/03/24 00:45:00;;;;;;;;;60.00;47.25;;;;;;;;5069138;28;45500;-81
2022/03/24 00:47:26;;;;;;;;;48.50;40.00;;;;;;;;5069019;28;45343;-81
2022/03/24 00:49:52;;;;;;;;;57.00;46.25;;;;;;;;5068799;28;45585;-81
2022/03/24 00:52:17;;;;;;;;;57.00;44.00;;;;;;;;5068289;28;45316;-81
2022/03/24 00:54:42;;;;;;;;;57.50;46.25;;;;;;;;5066989;28;45327;-81
2022/03/24 00:57:07;;;;;;;;;58.25;47.50;;;;;;;;5067665;28;46357;-81
2022/03/24 00:59:33;;;;;;;;;56.25;42.50;;;;;;;;5069534;28;45597;-81
2022/03/24 01:01:59;;;;;;;;;52.50;43.25;;;;;;;;5067356;28;45629;-81
2022/03/24 01:04:24;;;;;;;;;54.75;42.50;;;;;;;;5069451;28;45551;-81
2022/03/24 01:06:49;;;;;;;;;56.00;44.50;;;;;;;;5066421;28;45962;-81
2022/03/24 01:09:14;;;;;;;;;52.00;41.25;;;;;;;;5066698;28;47619;-81
2022/03/24 01:11:40;;;;;;;;;44.75;38.00;;;;;;;;5070943;28;45469;-80
2022/03/24 01:14:07;;;;;;;;;53.50;40.50;;;;;;;;5066512;28;45636;-79
2022/03/24 01:16:32;;;;;;;;;48.50;40.75;;;;;;;;5070376;28;46206;-82
2022/03/24 01:18:57;;;;;;;;;47.75;37.50;;;;;;;;5066533;28;45472;-82
2022/03/24 01:21:23;;;;;;;;;52.25;42.00;;;;;;;;5065505;28;45319;-82
2022/03/24 01:23:48;;;;;;;;;50.75;37.50;;;;;;;;5070908;28;45387;-83
2022/03/24 01:26:15;;;;;;;;;46.00;38.00;;;;;;;;5065412;28;46395;-82
2022/03/24 01:28:41;;;;;;;;;49.00;39.50;;;;;;;;5071184;28;45356;-83
2022/03/24 01:31:08;;;;;;;;;49.00;38.75;;;;;;;;5065792;28;45262;-82
2022/03/24 01:33:34;;;;;;;;;48.25;37.00;;;;;;;;5064819;28;45494;-82
2022/03/24 01:35:59;;;;;;;;;46.75;38.00;;;;;;;;5069489;28;45557;-83
2022/03/24 01:38:24;;;;;;;;;42.75;37.00;;;;;;;;5066808;28;45217;-85
2022/03/24 01:40:50;;;;;;;;;49.00;40.00;;;;;;;;5051321;28;45343;-81
2022/03/24 01:43:17;;;;;;;;;49.25;39.75;;;;;;;;5067998;28;45389;-80
2022/03/24 01:45:42;;;;;;;;;53.75;41.75;;;;;;;;5064407;28;47281;-79
2022/03/24 01:48:10;;;;;;;;;48.25;40.00;;;;;;;;5068358;28;45353;-79
2022/03/24 01:50:36;;;;;;;;;53.00;40.75;;;;;;;;5068178;28;45371;-80
2022/03/24 01:53:01;;;;;;;;;50.00;41.00;;;;;;;;5067516;28;45347;-80
2022/03/24 01:55:27;;;;;;;;;51.75;40.00;;;;;;;;5069003;28;46561;-80
2022/03/24 01:57:52;;;;;;;;;48.00;40.00;;;;;;;;5064124;28;45608;-80
2022/03/24 02:00:19;;;;;;;;;52.50;41.50;;;;;;;;5066253;28;45393;-80
2022/03/24 02:02:44;;;;;;;;;53.00;41.75;;;;;;;;5069154;28;45421;-80
2022/03/24 02:05:10;;;;;;;;;52.50;40.50;;;;;;;;5065949;28;46466;-80
2022/03/24 02:07:36;;;;;;;;;51.50;41.00;;;;;;;;5070477;28;45474;-80
2022/03/24 02:10:04;;;;;;;;;50.25;41.25;;;;;;;;5064045;28;45300;-80
2022/03/24 02:12:29;;;;;;;;;56.25;43.75;;;;;;;;5065248;28;45506;-80
2022/03/24 02:14:58;;;;;;;;;48.75;39.25;;;;;;;;5068046;28;46138;-80
2022/03/24 02:17:28;;;;;;;;;53.50;42.25;;;;;;;;5067543;28;45569;-81
2022/03/24 02:19:54;;;;;;;;;45.25;36.00;;;;;;;;5067721;28;45470;-82
2022/03/24 02:22:19;;;;;;;;;48.50;40.25;;;;;;;;5067555;28;45606;-80
2022/03/24 02:24:45;;;;;;;;;45.00;36.00;;;;;;;;5065143;28;46741;-82
2022/03/24 02:27:11;;;;;;;;;51.75;40.00;;;;;;;;5065863;28;45478;-82
2022/03/24 02:29:36;;;;;;;;;43.75;37.50;;;;;;;;5068612;28;45338;-81
2022/03/24 02:32:03;;;;;;;;;49.25;37.00;;;;;;;;5065698;28;45398;-82
2022/03/24 02:34:37;;;;;;;;;50.50;40.75;;;;;;;;5068667;28;46314;-81
2022/03/24 02:37:05;;;;;;;;;52.00;41.25;;;;;;;;5064986;28;45358;-81
2022/03/24 02:39:30;;;;;;;;;50.75;40.50;;;;;;;;5063434;28;45461;-81
2022/03/24 02:41:57;;;;;;;;;53.00;41.00;;;;;;;;5069430;28;45469;-81
2022/03/24 02:44:23;;;;;;;;;46.25;39.00;;;;;;;;5065131;28;46334;-81
2022/03/24 02:46:49;;;;;;;;;49.00;40.50;;;;;;;;5068844;28;45406;-80
2022/03/24 02:49:15;;;;;;;;;56.75;43.25;;;;;;;;5065853;28;45398;-79
2022/03/24 02:51:40;;;;;;;;;48.25;39.50;;;;;;;;5063682;28;45410;-79
2022/03/24 02:54:05;;;;;;;;;51.25;42.25;;;;;;;;5046853;28;47240;-79
2022/03/24 02:56:31;;;;;;;;;47.50;38.50;;;;;;;;5066579;28;45541;-79
2022/03/24 02:58:56;;;;;;;;;47.50;38.50;;;;;;;;5067008;28;45416;-79
2022/03/24 03:01:25;;;;;;;;;52.50;42.00;;;;;;;;5039518;28;45394;-81
2022/03/24 03:03:50;;;;;;;;;48.25;39.25;;;;;;;;5063046;28;46954;-81
2022/03/24 03:06:15;;;;;;;;;51.25;37.75;;;;;;;;5070676;28;45357;-81
2022/03/24 03:08:41;;;;;;;;;48.50;39.50;;;;;;;;5070466;28;45415;-82
2022/03/24 03:11:06;;;;;;;;;48.50;40.50;;;;;;;;5071932;28;45410;-83
2022/03/24 03:13:34;;;;;;;;;49.50;40.75;;;;;;;;5068599;28;45373;-83
2022/03/24 03:15:59;;;;;;;;;47.25;39.25;;;;;;;;5063954;28;45462;-83
2022/03/24 03:18:25;;;;;;;;;56.25;43.00;;;;;;;;5065863;28;45529;-84
2022/03/24 03:20:50;;;;;;;;;48.50;40.50;;;;;;;;5069389;28;45594;-83
2022/03/24 03:23:16;;;;;;;;;55.25;42.00;;;;;;;;5060598;28;46080;-79
2022/03/24 03:25:41;;;;;;;;;51.50;39.75;;;;;;;;5074254;28;45280;-78
2022/03/24 03:28:07;;;;;;;;;54.75;44.00;;;;;;;;5068093;28;45318;-80
2022/03/24 03:30:32;;;;;;;;;53.25;40.75;;;;;;;;5071027;28;46725;-79
2022/03/24 03:32:57;;;;;;;;;53.50;38.75;;;;;;;;5073646;28;45510;-81
2022/03/24 03:35:22;;;;;;;;;45.75;35.50;;;;;;;;5072807;28;45511;-80
2022/03/24 03:37:47;;;;;;;;;45.00;37.00;;;;;;;;5074614;28;45212;-80
2022/03/24 03:40:13;;;;;;;;;50.50;40.50;;;;;;;;5071365;28;45263;-80
2022/03/24 03:42:38;;;;;;;;;52.25;40.00;;;;;;;;5070629;28;46174;-81
2022/03/24 03:45:04;;;;;;;;;51.50;42.25;;;;;;;;5072502;28;45241;-81
2022/03/24 03:47:29;;;;;;;;;45.00;35.00;;;;;;;;5073643;28;45323;-80
2022/03/24 03:49:55;;;;;;;;;51.00;42.00;;;;;;;;5072318;28;45331;-80
2022/03/24 03:52:20;;;;;;;;;49.25;39.25;;;;;;;;5072793;28;46352;-79
2022/03/24 03:54:45;;;;;;;;;52.75;39.75;;;;;;;;5070387;28;45568;-80
2022/03/24 03:57:10;;;;;;;;;48.25;39.75;;;;;;;;5071028;28;45410;-80
2022/03/24 03:59:36;;;;;;;;;47.50;39.50;;;;;;;;5074087;28;45582;-80
2022/03/24 04:02:01;;;;;;;;;40.50;34.25;;;;;;;;5070476;28;47557;-80
2022/03/24 04:04:27;;;;;;;;;46.00;38.75;;;;;;;;5074779;28;45364;-84
2022/03/24 04:06:52;;;;;;;;;50.25;37.75;;;;;;;;5071348;28;45397;-84
2022/03/24 04:09:18;;;;;;;;;49.25;40.50;;;;;;;;5068989;28;45402;-84
2022/03/24 04:11:43;;;;;;;;;50.50;40.00;;;;;;;;5075925;28;46232;-84
2022/03/24 04:14:08;;;;;;;;;49.75;40.75;;;;;;;;5070182;28;45395;-85
2022/03/24 04:16:34;;;;;;;;;51.50;40.75;;;;;;;;5075454;28;45455;-83
2022/03/24 04:18:59;;;;;;;;;47.75;39.75;;;;;;;;5070571;28;45386;-83
2022/03/24 04:21:24;;;;;;;;;48.00;39.00;;;;;;;;5068683;28;45307;-80
2022/03/24 04:23:50;;;;;;;;;52.75;41.00;;;;;;;;5074900;28;45386;-82
2022/03/24 04:26:15;;;;;;;;;50.50;42.50;;;;;;;;5069492;28;45501;-82
2022/03/24 04:28:43;;;;;;;;;45.50;40.00;;;;;;;;5075533;28;45430;-81
2022/03/24 04:31:09;;;;;;;;;44.50;38.75;;;;;;;;5070423;28;46458;-82
2022/03/24 04:33:34;;;;;;;;;40.25;37.00;;;;;;;;5067385;28;45641;-80
2022/03/24 04:35:59;;;;;;;;;41.00;38.25;;;;;;;;5070726;28;45606;-80
2022/03/24 04:38:26;;;;;;;;;40.25;35.75;;;;;;;;5067737;28;45416;-80
2022/03/24 04:40:52;;;;;;;;;54.50;43.50;;;;;;;;5069334;28;45526;-81
2022/03/24 04:43:17;;;;;;;;;45.00;35.25;;;;;;;;5068813;28;45483;-81
2022/03/24 04:45:43;;;;;;;;;45.00;35.50;;;;;;;;5065485;28;45453;-81
2022/03/24 04:48:08;;;;;;;;;48.25;37.75;;;;;;;;5068913;28;45472;-80
2022/03/24 04:50:34;;;;;;;;;51.00;40.25;;;;;;;;5068704;28;46227;-80
2022/03/24 04:52:59;;;;;;;;;49.00;38.00;;;;;;;;5068426;28;45467;-80
2022/03/24 04:55:24;;;;;;;;;43.50;36.00;;;;;;;;5069663;28;45337;-81
2022/03/24 04:57:49;;;;;;;;;47.00;37.25;;;;;;;;5065105;28;45387;-81
2022/03/24 05:00:17;;;;;;;;;51.00;40.00;;;;;;;;5068194;28;46263;-81
2022/03/24 05:02:43;;;;;;;;;50.75;40.75;;;;;;;;5068001;28;45515;-80
2022/03/24 05:05:09;;;;;;;;;48.00;38.00;;;;;;;;5037619;28;45259;-84
2022/03/24 05:07:34;;;;;;;;;49.25;39.75;;;;;;;;5061700;28;45304;-85
2022/03/24 05:09:59;;;;;;;;;51.75;42.50;;;;;;;;5068310;28;46498;-84
2022/03/24 05:12:24;;;;;;;;;47.50;38.50;;;;;;;;5064653;28;45516;-85
2022/03/24 05:14:50;;;;;;;;;48.00;38.50;;;;;;;;5059497;28;45433;-84
2022/03/24 05:17:15;;;;;;;;;54.25;42.75;;;;;;;;5055135;28;45398;-84
2022/03/24 05:19:40;;;;;;;;;47.00;39.00;;;;;;;;5060592;28;47074;-83
2022/03/24 05:22:06;;;;;;;;;43.75;37.25;;;;;;;;5058889;28;45411;-84
2022/03/24 05:24:31;;;;;;;;;51.25;38.75;;;;;;;;5058561;28;47475;-83
2022/03/24 05:26:57;;;;;;;;;49.00;39.75;;;;;;;;5058303;28;45585;-83
2022/03/24 05:29:22;;;;;;;;;52.50;42.25;;;;;;;;5054309;28;47258;-83
2022/03/24 05:31:47;;;;;;;;;56.75;42.25;;;;;;;;5058078;28;45399;-82
2022/03/24 05:34:12;;;;;;;;;50.75;39.75;;;;;;;;5059085;28;45868;-82
2022/03/24 05:36:38;;;;;;;;;59.00;45.00;;;;;;;;5058042;28;45369;-81
2022/03/24 05:39:03;;;;;;;;;53.75;43.00;;;;;;;;5057896;28;46008;-82
2022/03/24 05:41:28;;;;;;;;;52.50;43.50;;;;;;;;5055752;28;45471;-82
2022/03/24 05:44:03;;;;;;;;;58.00;46.25;;;;;;;;5056995;28;45311;-81
2022/03/24 05:46:32;;;;;;;;;56.00;45.00;;;;;;;;5057321;28;45462;-80
2022/03/24 05:48:58;;;;;;;;;50.50;41.25;;;;;;;;5057704;28;47139;-81
2022/03/24 05:51:23;;;;;;;;;53.25;43.50;;;;;;;;5057477;28;45493;-81
2022/03/24 05:53:49;;;;;;;;;61.25;46.25;;;;;;;;5057625;28;45356;-80
2022/03/24 05:56:14;;;;;;;;;53.50;44.50;;;;;;;;5053794;28;45344;-81
2022/03/24 05:58:39;;;;;;;;;53.50;41.75;;;;;;;;5058565;28;46589;-78
2022/03/24 06:01:05;;;;;;;;;54.75;43.25;;;;;;;;5057093;28;45422;-78
2022/03/24 06:03:30;;;;;;;;;51.50;41.00;;;;;;;;5061826;28;45407;-79
2022/03/24 06:05:58;;;;;;;;;53.50;45.50;;;;;;;;5068452;28;45403;-79
2022/03/24 06:08:24;;;;;;;;;55.75;44.25;;;;;;;;5055948;28;46082;-77
2022/03/24 06:10:50;;;;;;;;;52.75;40.75;;;;;;;;5057806;28;45350;-80
2022/03/24 06:13:15;;;;;;;;;48.00;38.75;;;;;;;;5059493;28;45422;-79
2022/03/24 06:15:40;;;;;;;;;51.50;40.50;;;;;;;;5058428;28;45444;-80
2022/03/24 06:18:05;;;;;;;;;55.50;42.25;;;;;;;;5058921;28;46363;-77
2022/03/24 06:20:31;;;;;;;;;56.00;42.00;;;;;;;;5056430;28;45499;-77
2022/03/24 06:22:56;;;;;;;;;55.25;44.00;;;;;;;;5055635;28;45399;-78
2022/03/24 06:25:22;;;;;;;;;64.25;48.75;;;;;;;;5058764;28;45295;-77
2022/03/24 06:27:49;;;;;;;;;51.50;42.25;;;;;;;;5058200;28;46495;-78
2022/03/24 06:30:15;;;;;;;;;52.50;41.25;;;;;;;;5058253;28;45667;-78
2022/03/24 06:32:40;;;;;;;;;57.75;43.75;;;;;;;;5057637;28;45593;-78
2022/03/24 06:35:05;;;;;;;;;52.00;41.75;;;;;;;;5054621;28;45537;-79
2022/03/24 06:37:31;;;;;;;;;52.75;42.00;;;;;;;;5075506;28;45565;-78
2022/03/24 06:39:57;;;;;;;;;58.00;44.50;;;;;;;;5059320;28;45273;-77
2022/03/24 06:42:23;;;;;;;;;52.75;42.75;;;;;;;;5058314;28;45295;-76
2022/03/24 06:44:49;;;;;;;;;49.00;40.25;;;;;;;;5058573;28;45336;-78
2022/03/24 06:47:15;;;;;;;;;54.75;41.00;;;;;;;;5036253;28;47516;-77
2022/03/24 06:49:40;;;;;;;;;55.75;42.50;;;;;;;;5058137;28;45327;-78
2022/03/24 06:52:06;;;;;;;;;50.00;40.25;;;;;;;;5051645;28;45342;-78
2022/03/24 06:54:32;;;;;;;;;56.50;43.75;;;;;;;;5050412;28;45433;-78
2022/03/24 06:56:57;;;;;;;;;54.00;44.50;;;;;;;;5050176;28;46243;-78
2022/03/24 06:59:22;;;;;;;;;56.75;41.00;;;;;;;;5050573;28;45224;-78
2022/03/24 07:01:49;;;;;;;;;50.25;40.50;;;;;;;;5051898;28;45204;-77
2022/03/24 07:04:14;;;;;;;;;60.75;47.00;;;;;;;;5061486;28;45578;-79
2022/03/24 07:06:40;;;;;;;;;58.75;46.00;;;;;;;;5068213;27;46595;-78
2022/03/24 07:09:05;;;;;;;;;55.75;44.25;;;;;;;;5069672;28;45469;-76
2022/03/24 07:11:32;;;;;;;;;57.50;43.25;;;;;;;;5070848;28;45797;-78
2022/03/24 07:13:57;;;;;;;;;56.00;41.00;;;;;;;;5072574;27;45266;-77
2022/03/24 07:16:22;;;;;;;;;53.25;42.25;;;;;;;;5071010;28;46274;-78
2022/03/24 07:18:48;;;;;;;;;48.25;40.25;;;;;;;;5069977;28;45347;-78
2022/03/24 07:21:14;;;;;;;;;50.00;41.00;;;;;;;;5070731;28;45342;-77
2022/03/24 07:23:39;;;;;;;;;54.25;43.25;;;;;;;;5070651;28;45411;-78
2022/03/24 07:26:05;;;;;;;;;53.00;42.25;;;;;;;;5071854;28;46208;-77
2022/03/24 07:28:30;;;;;;;;;53.75;42.75;;;;;;;;5073129;28;45457;-78
2022/03/24 07:30:55;;;;;;;;;54.00;43.00;;;;;;;;5065271;28;45498;-79
2022/03/24 07:33:21;;;;;;;;;50.25;39.00;;;;;;;;5070488;27;45345;-77
2022/03/24 07:35:46;;;;;;;;;54.00;44.75;;;;;;;;5069914;28;47049;-79
2022/03/24 07:38:12;;;;;;;;;55.25;44.00;;;;;;;;5071249;28;45388;-78
2022/03/24 07:40:37;;;;;;;;;61.75;47.00;;;;;;;;5073055;28;45352;-80
2022/03/24 07:43:03;;;;;;;;;54.00;44.25;;;;;;;;5069279;27;45279;-79
2022/03/24 07:45:28;;;;;;;;;52.75;41.75;;;;;;;;5070321;28;46405;-78
2022/03/24 07:48:25;;;;;;;;;58.50;44.50;;;;;;;;5070054;27;45549;-80
2022/03/24 07:50:51;;;;;;;;;59.00;46.50;;;;;;;;5057076;28;45381;-77
2022/03/24 07:53:30;;;;;;;;;50.25;37.50;;;;;;;;5069227;28;45402;-80
2022/03/24 07:55:56;;;;;;;;;50.00;40.00;;;;;;;;5071248;27;46083;-80
2022/03/24 07:58:22;;;;;;;;;51.75;42.50;;;;;;;;5072811;28;45313;-77
2022/03/24 08:00:47;;;;;;;;;57.25;43.75;;;;;;;;5072361;27;45411;-78
2022/03/24 08:03:19;;;;;;;;;51.75;40.75;;;;;;;;5066800;27;45481;-77
2022/03/24 08:05:45;;;;;;;;;55.00;44.25;;;;;;;;5047143;28;46924;-77
2022/03/24 08:08:10;;;;;;;;;53.00;42.75;;;;;;;;5049158;28;45389;-77
2022/03/24 08:10:40;;;;;;;;;51.50;41.00;;;;;;;;5071056;28;45410;-76
2022/03/24 08:13:05;;;;;;;;;52.00;41.50;;;;;;;;5056849;28;45441;-77
2022/03/24 08:15:31;;;;;;;;;42.75;38.75;;;;;;;;5058804;28;46106;-76
2022/03/24 08:17:56;;;;;;;;;53.50;43.50;;;;;;;;5063368;28;45272;-78
2022/03/24 08:20:23;;;;;;;;;58.75;45.25;;;;;;;;5058736;28;45523;-77
2022/03/24 08:22:48;;;;;;;;;49.00;41.25;;;;;;;;5062743;28;45429;-78
2022/03/24 08:25:13;;;;;;;;;54.00;40.50;;;;;;;;5070604;28;45600;-78
2022/03/24 08:27:39;;;;;;;;;52.75;42.75;;;;;;;;5063803;28;45312;-77
2022/03/24 08:30:04;;;;;;;;;55.00;44.00;;;;;;;;5044071;28;45457;-75
2022/03/24 08:32:29;;;;;;;;;51.00;41.50;;;;;;;;5059198;28;45415;-81
2022/03/24 08:34:55;;;;;;;;;50.50;40.75;;;;;;;;5059893;28;46247;-79
2022/03/24 08:37:20;;;;;;;;;59.25;45.00;;;;;;;;5062355;28;45451;-78
2022/03/24 08:39:46;;;;;;;;;54.00;44.50;;;;;;;;5061358;28;45434;-80
2022/03/24 08:42:12;;;;;;;;;48.25;40.75;;;;;;;;5059739;28;45205;-80
2022/03/24 08:44:37;;;;;;;;;46.25;39.75;;;;;;;;5058640;28;45352;-79
2022/03/24 08:47:02;;;;;;;;;47.25;38.75;;;;;;;;5058032;28;45526;-80
2022/03/24 08:49:27;;;;;;;;;58.25;45.50;;;;;;;;5061496;28;45253;-77
2022/03/24 08:51:53;;;;;;;;;52.00;40.25;;;;;;;;5039600;28;45530;-78
2022/03/24 08:54:18;;;;;;;;;52.25;42.00;;;;;;;;5058571;28;46247;-79
2022/03/24 08:56:44;;;;;;;;;53.50;43.75;;;;;;;;5057843;28;45410;-79
2022/03/24 08:59:09;;;;;;;;;49.50;40.25;;;;;;;;5053073;28;45523;-79
2022/03/24 09:01:37;;;;;;;;;43.75;37.00;;;;;;;;5058776;28;45546;-79
2022/03/24 09:04:02;;;;;;;;;52.50;41.50;;;;;;;;5064345;28;47220;-80
2022/03/24 09:06:27;;;;;;;;;49.00;39.00;;;;;;;;5061310;28;45501;-80
2022/03/24 09:08:53;;;;;;;;;53.25;43.25;;;;;;;;5054730;28;45407;-78
2022/03/24 09:11:18;;;;;;;;;48.75;42.00;;;;;;;;5051950;28;45365;-81
2022/03/24 09:13:43;;;;;;;;;49.50;38.50;;;;;;;;5058841;28;45980;-79
2022/03/24 09:16:08;;;;;;;;;47.25;39.00;;;;;;;;5057000;28;45334;-81
2022/03/24 09:18:34;;;;;;;;;51.25;40.50;;;;;;;;5055802;28;45467;-80
2022/03/24 09:20:59;;;;;;;;;52.50;41.25;;;;;;;;5055186;28;45414;-82
2022/03/24 09:23:26;;;;;;;;;47.75;38.00;;;;;;;;5050676;28;47302;-80
2022/03/24 09:25:52;;;;;;;;;53.75;40.50;;;;;;;;5053669;28;45408;-80
2022/03/24 09:28:17;;;;;;;;;64.00;49.75;;;;;;;;5056552;28;45617;-79
2022/03/24 09:30:42;;;;;;;;;56.50;44.00;;;;;;;;5054725;28;45304;-78
2022/03/24 09:33:09;;;;;;;;;52.00;41.50;;;;;;;;5050681;28;46191;-77
2022/03/24 09:35:34;;;;;;;;;40.50;34.25;;;;;;;;5053462;28;45514;-78
2022/03/24 09:37:59;;;;;;;;;47.25;39.50;;;;;;;;5047644;28;45506;-79
2022/03/24 09:40:25;;;;;;;;;56.00;44.00;;;;;;;;5056920;28;45378;-78
2022/03/24 09:42:50;;;;;;;;;52.25;40.00;;;;;;;;5055041;28;47037;-79
2022/03/24 09:45:15;;;;;;;;;53.25;41.25;;;;;;;;5054816;28;45569;-78
2022/03/24 09:47:41;;;;;;;;;51.25;41.25;;;;;;;;5054556;28;45359;-77
2022/03/24 09:50:08;;;;;;;;;56.00;45.00;;;;;;;;5052614;28;45574;-78
2022/03/24 09:52:33;;;;;;;;;51.00;42.25;;;;;;;;5058118;28;46360;-79
2022/03/24 09:54:58;;;;;;;;;51.25;39.25;;;;;;;;5055292;28;45372;-79
2022/03/24 09:57:23;;;;;;;;;56.00;41.00;;;;;;;;5054921;28;45470;-77
2022/03/24 09:59:49;;;;;;;;;47.00;36.00;;;;;;;;5054872;28;45480;-78
2022/03/24 10:02:15;;;;;;;;;48.00;37.00;;;;;;;;5050411;28;47112;-78
2022/03/24 10:04:46;;;;;;;;;49.75;37.25;;;;;;;;5071540;28;45479;-79
2022/03/24 10:07:11;;;;;;;;;44.50;36.50;;;;;;;;5071227;28;45422;-78
2022/03/24 10:09:38;;;;;;;;;47.50;38.50;;;;;;;;5072363;28;45408;-78
2022/03/24 10:12:04;;;;;;;;;46.00;34.75;;;;;;;;5071290;28;46446;-80
2022/03/24 10:14:29;;;;;;;;;47.00;37.75;;;;;;;;5071699;28;45467;-79
2022/03/24 10:17:04;;;;;;;;;49.25;36.50;;;;;;;;5073228;28;45355;-78
2022/03/24 10:19:30;;;;;;;;;47.00;38.75;;;;;;;;5073573;28;45316;-79
2022/03/24 10:21:56;;;;;;;;;50.00;39.25;;;;;;;;5073493;28;45463;-78
2022/03/24 10:24:22;;;;;;;;;49.50;38.25;;;;;;;;5073745;28;45264;-78
2022/03/24 10:26:49;;;;;;;;;44.50;35.75;;;;;;;;5074255;28;45296;-78
2022/03/24 10:29:16;;;;;;;;;45.75;37.00;;;;;;;;5073832;28;45338;-78
2022/03/24 10:31:43;;;;;;;;;50.75;40.75;;;;;;;;5073180;28;46211;-79
2022/03/24 10:34:10;;;;;;;;;44.25;35.75;;;;;;;;5072998;28;45715;-78
2022/03/24 10:36:35;;;;;;;;;41.25;35.75;;;;;;;;5073044;28;45514;-78
2022/03/24 10:39:04;;;;;;;;;42.25;37.25;;;;;;;;5073170;28;45373;-81
2022/03/24 10:41:33;;;;;;;;;50.00;42.50;;;;;;;;5073737;28;47007;-79
2022/03/24 10:44:04;;;;;;;;;35.75;31.25;;;;;;;;5073126;28;45493;-79
2022/03/24 10:46:30;;;;;;;;;42.00;35.75;;;;;;;;5074067;28;45364;-80
2022/03/24 10:48:56;;;;;;;;;43.50;33.75;;;;;;;;5073238;28;45506;-79
2022/03/24 10:51:26;;;;;;;;;36.00;31.75;;;;;;;;5073289;28;46112;-79
2022/03/24 10:53:53;;;;;;;;;47.25;39.50;;;;;;;;5073723;28;45451;-79
2022/03/24 10:56:30;;;;;;;;;40.00;35.25;;;;;;;;5073840;28;45340;-80
2022/03/24 10:58:57;;;;;;;;;47.50;39.75;;;;;;;;5072547;28;45368;-81
2022/03/24 11:01:24;;;;;;;;;48.75;41.25;;;;;;;;5073692;28;47233;-80
2022/03/24 11:03:49;;;;;;;;;42.75;34.25;;;;;;;;5072451;28;45487;-79
2022/03/24 11:06:17;;;;;;;;;39.00;31.50;;;;;;;;5072714;28;45288;-82
2022/03/24 11:08:43;;;;;;;;;42.75;34.50;;;;;;;;5073096;28;45474;-81
2022/03/24 11:11:12;;;;;;;;;43.00;36.00;;;;;;;;5072483;28;45403;-80
2022/03/24 11:13:42;;;;;;;;;48.00;35.75;;;;;;;;5055027;28;45445;-80
2022/03/24 11:16:08;;;;;;;;;38.75;33.75;;;;;;;;5073040;28;45358;-82
2022/03/24 11:18:33;;;;;;;;;39.50;33.00;;;;;;;;5072751;28;45567;-80
2022/03/24 11:21:01;;;;;;;;;42.25;33.50;;;;;;;;5072009;28;46753;-80
2022/03/24 11:23:29;;;;;;;;;49.50;40.25;;;;;;;;5072263;28;45374;-82
2022/03/24 11:25:57;;;;;;;;;41.50;33.00;;;;;;;;5073262;28;45407;-82
2022/03/24 11:28:23;;;;;;;;;34.25;30.00;;;;;;;;5073361;28;45545;-81
2022/03/24 11:30:48;;;;;;;;;49.00;39.50;;;;;;;;5072906;28;49488;-80
2022/03/24 11:33:14;;;;;;;;;43.00;37.25;;;;;;;;5072556;28;45206;-80
2022/03/24 11:35:40;;;;;;;;;37.50;33.50;;;;;;;;5072654;28;45562;-80
2022/03/24 11:38:06;;;;;;;;;35.00;31.00;;;;;;;;5072471;28;45270;-81
2022/03/24 11:40:33;;;;;;;;;39.50;31.25;;;;;;;;5072111;28;45947;-80
2022/03/24 11:43:00;;;;;;;;;32.50;29.50;;;;;;;;5072889;28;45468;-80
2022/03/24 11:45:49;;;;;;;;;31.00;29.25;;;;;;;;5075027;28;45443;-80
2022/03/24 11:48:15;;;;;;;;;23.50;21.25;;;;;;;;5075684;28;45469;-81
2022/03/24 11:50:47;;;;;;;;;37.75;32.25;;;;;;;;5076030;28;47776;-81
2022/03/24 11:53:17;;;;;;;;;29.25;29.00;;;;;;;;5076142;28;45461;-79
2022/03/24 11:56:03;;;;;;;;;33.25;30.25;;;;;;;;5073018;28;45321;-80
2022/03/24 11:58:30;;;;;;;;;38.25;32.75;;;;;;;;5057269;28;45867;-79
2022/03/24 12:00:55;;;;;;;;;33.50;28.75;;;;;;;;5074376;28;45644;-80
2022/03/24 12:03:40;;;;;;;;;32.50;30.50;;;;;;;;5074994;28;45546;-80
2022/03/24 12:06:06;;;;;;;;;35.50;30.00;;;;;;;;5054428;28;45524;-81
2022/03/24 12:08:42;;;;;;;;;36.50;31.50;;;;;;;;5075597;28;45460;-81
2022/03/24 12:11:28;;;;;;;;;27.75;26.75;;;;;;;;5074640;28;46151;-82
2022/03/24 12:13:56;;;;;;;;;29.50;27.00;;;;;;;;5071962;28;45305;-81
2022/03/24 12:16:24;;;;;;;;;29.50;26.25;;;;;;;;5075826;28;45485;-81
2022/03/24 12:18:49;;;;;;;;;31.75;29.00;;;;;;;;5075175;28;45288;-79
2022/03/24 12:21:21;;;;;;;;;31.50;26.75;;;;;;;;5075938;28;46983;-81
2022/03/24 12:24:01;;;;;;;;;32.75;29.00;;;;;;;;5074823;28;45366;-81
2022/03/24 12:26:27;;;;;;;;;27.75;25.75;;;;;;;;5075980;28;45388;-81
2022/03/24 12:29:11;;;;;;;;;29.50;28.25;;;;;;;;5075941;28;45245;-81
2022/03/24 12:32:06;;;;;;;;;30.00;26.25;;;;;;;;5075541;28;45418;-81
2022/03/24 12:34:40;;;;;;;;;34.25;30.00;;;;;;;;5052491;28;45599;-81
2022/03/24 12:37:06;;;;;;;;;22.75;19.25;;;;;;;;5070343;28;45589;-79
2022/03/24 12:39:32;;;;;;;;;24.50;23.75;;;;;;;;5072048;28;45453;-79
2022/03/24 12:42:08;;;;;;;;;39.00;30.75;;;;;;;;5073264;28;47133;-79
2022/03/24 12:45:07;;;;;;;;;28.25;25.00;;;;;;;;5072350;28;45355;-79
2022/03/24 12:47:34;;;;;;;;;29.00;25.75;;;;;;;;4989035;28;45702;-80
2022/03/24 12:50:06;;;;;;;;;29.50;26.75;;;;;;;;4989306;28;45469;-81
2022/03/24 12:52:50;;;;;;;;;18.75;18.75;;;;;;;;4989588;28;45702;-78
2022/03/24 12:55:34;;;;;;;;;31.25;27.75;;;;;;;;4989186;28;45465;-79
2022/03/24 12:58:01;;;;;;;;;23.75;21.25;;;;;;;;4989898;28;45622;-79
2022/03/24 13:00:29;;;;;;;;;40.00;32.50;;;;;;;;4988959;28;45643;-79
2022/03/24 13:02:54;;;;;;;;;28.50;27.75;;;;;;;;4988367;28;46906;-81
2022/03/24 13:05:33;;;;;;;;;33.25;30.25;;;;;;;;4989439;28;45502;-80
2022/03/24 13:07:59;;;;;;;;;32.75;30.00;;;;;;;;4988632;28;46155;-80
2022/03/24 13:10:26;;;;;;;;;31.50;27.00;;;;;;;;4973462;28;45663;-80
2022/03/24 13:12:54;;;;;;;;;26.50;25.50;;;;;;;;4988784;28;46111;-79
2022/03/24 13:15:20;;;;;;;;;29.00;28.00;;;;;;;;4989603;28;45602;-81
2022/03/24 13:17:52;;;;;;;;;30.25;27.25;;;;;;;;4989223;28;45472;-80
2022/03/24 13:20:20;;;;;;;;;28.75;25.50;;;;;;;;4989274;28;45440;-80
2022/03/24 13:22:47;;;;;;;;;29.50;25.25;;;;;;;;5017846;28;45597;-81
2022/03/24 13:25:14;;;;;;;;;35.00;28.50;;;;;;;;5073667;28;45448;-81
2022/03/24 13:27:40;;;;;;;;;23.00;20.50;;;;;;;;5072583;28;45380;-80
2022/03/24 13:30:06;;;;;;;;;26.25;25.00;;;;;;;;5072129;28;45494;-80
2022/03/24 13:32:32;;;;;;;;;28.25;27.50;;;;;;;;5071783;28;47052;-81
2022/03/24 13:34:59;;;;;;;;;27.25;24.75;;;;;;;;5073081;27;45487;-81
2022/03/24 13:37:24;;;;;;;;;26.25;25.50;;;;;;;;5069528;28;45362;-81
2022/03/24 13:39:49;;;;;;;;;24.75;22.25;;;;;;;;5070972;28;45642;-80
2022/03/24 13:42:15;;;;;;;;;28.50;26.50;;;;;;;;5070452;28;45649;-80
2022/03/24 13:44:44;;;;;;;;;26.75;26.75;;;;;;;;5070433;28;45408;-81
2022/03/24 13:47:09;;;;;;;;;28.00;27.00;;;;;;;;5070760;27;45386;-81
2022/03/24 13:49:34;;;;;;;;;31.25;27.25;;;;;;;;5069665;28;45547;-84
2022/03/24 13:52:00;;;;;;;;;25.00;24.25;;;;;;;;5069595;28;45388;-82
2022/03/24 13:54:25;;;;;;;;;27.75;24.50;;;;;;;;5071456;28;45465;-82
2022/03/24 13:56:52;;;;;;;;;27.75;27.00;;;;;;;;5071369;28;46136;-79
2022/03/24 13:59:24;;;;;;;;;28.50;28.00;;;;;;;;5070722;27;45415;-79
2022/03/24 14:01:56;;;;;;;;;30.25;28.00;;;;;;;;5072547;28;45482;-87
2022/03/24 14:04:21;;;;;;;;;25.75;25.75;;;;;;;;5073059;28;45589;-89
2022/03/24 14:07:06;;;;;;;;;33.25;27.75;;;;;;;;5075469;28;45349;-82
2022/03/24 14:09:31;;;;;;;;;29.25;25.75;;;;;;;;5069786;27;45505;-79
2022/03/24 14:12:15;;;;;;;;;32.00;27.25;;;;;;;;5071174;28;45880;-79
2022/03/24 14:14:42;;;;;;;;;33.00;30.00;;;;;;;;5071997;28;45536;-81